Table of Contents
Bounty Hunters Series 2024

Bounty Hunters Series

7th July - 29th July 2024

Join us at the Bounty Hunters Series this summer from 7th July - 29th July 2024, where you can showcase your skills as a bounty hunter and win big prizes.

With epic rewards waiting to be claimed, don't miss out on the opportunity to be a part of this adventure.

The Biggest Hunt This Summer

Bounty hunting requires skill, strategy, and dedication, and the Bounty Hunters Series is expected to attract a diverse range of bounty hunters who are seeking exciting action and intense competition.

This series includes events that suit all bankrolls, so whether you're a high-roller or a casual player, there's something for everyone.

In addition, there's a special Mystery Bounty Main Event with TEN Top Bounties that you won't want to miss out on. So, prepare your best poker strategies, stay alert, and be ready to pounce on any opportunity that comes your way!

Highlights

Mystery Bounty Main Event [Day 2] 108

Mystery Bounty Mini Main [Day 2] 25

Global Million Bounty Edition 50

Special Bounty Hunter Series Editions Happening On Sundays!

Full Event Schedule

Date Day Time (IST) Event Name Buy-in () Guarantee ()
Jul 7 Sun 18:00 215 Sunday Bounty Blast-Off 215 35,000
Jul 7 Sun 18:00 25 Sunday Bounty Blast-Off 25 100,000
Jul 7 Sun 19:00 10.80 Sunday Bounty Seven-Max 11 50,000
Jul 7 Sun 19:00 108 Sunday Bounty Seven-Max 108 70,000
Jul 7 Sun 19:35 10 Speed Racer POWER HOUR [10 BB] 10 12,500
Jul 7 Sun 19:45 25 Speed Racer POWER HOUR [10 BB] 25 12,500
Jul 7 Sun 19:55 50 Speed Racer POWER HOUR [10 BB] 50 12,500
Jul 7 Sun 20:00 840 Sunday Bounty Warm-Up HR 840 75,000
Jul 7 Sun 20:00 88 Sunday Bounty Warm-Up 88 175,000
Jul 7 Sun 20:05 100 Speed Racer POWER HOUR [10 BB] 100 10,000
Jul 7 Sun 20:15 200 Speed Racer POWER HOUR [10 BB] 200 12,500
Jul 7 Sun 21:00 44 Sunday Bounty Forty Stack 44 200,000
Jul 7 Sun 22:00 525 Bounty Hunters HR Main Event, 1M GTD 525 1,000,000
Jul 7 Sun 22:00 54 Bounty Hunters Sunday Main Event 54 500,000
Jul 7 Sun 23:00 215 Sunday Bounty Big Game 215 350,000
Jul 7 Sun 23:00 21.60 Sunday Bounty Big Game 22 200,000
Jul 7 Sun 23:10 215 Sunday Omaholic Big Game 215 50,000
Jul 8 Mon 00:30 1,050 Sunday HR Main Event [Bounty Edition] 1,050 300,000
Jul 8 Mon 01:00 320 GGMasters Bounty Special Edition 320 400,000
Jul 8 Mon 01:00 32 Sunday Bounty King 32 175,000
Jul 8 Mon 01:10 1,050 Sunday Omaholic Bounty HR 1,050 50,000
Jul 8 Mon 01:10 150 Sunday Omaholic Bounty Main 150 100,000
Jul 8 Mon 01:30 108 Sunday Showdown [Mystery Bounty] 108 400,000
Jul 8 Mon 01:30 15 Mini Showdown [Mystery Bounty] 15 250,000
Jul 8 Mon 02:30 1,050 Sunday HEATER HR [Bounty Turbo] 1,050 75,000
Jul 8 Mon 02:30 215 Sunday HEATER [Bounty Turbo] 215 125,000
Jul 8 Mon 02:30 25 Sunday Mini HEATER [Bounty Turbo] 25 100,000
Jul 8 Mon 04:00 77 LUCKY SEVENS [Bounty Turbo] 77 125,000
Jul 8 Mon 05:00 215 Sunday Last Call [Bounty Hyper] 215 60,000
Jul 8 Mon 05:30 88 Midnight Madness [Bounty Hyper] 88 40,000
Jul 8 Mon 06:35 10 Speed Racer POWER HOUR [10 BB] 10 5,000
Jul 8 Mon 06:45 25 Speed Racer POWER HOUR [10 BB] 25 7,000
Jul 8 Mon 06:55 50 Speed Racer POWER HOUR [10 BB] 50 6,000
Jul 8 Mon 07:05 100 Speed Racer POWER HOUR [10 BB] 100 7,000
Jul 8 Mon 07:15 200 Speed Racer POWER HOUR [10 BB] 200 7,000
Jul 8 Mon 18:00 25 Bounty Blast-Off 25 50,000
Jul 8 Mon 19:00 10.80 Monday Hangover [Variable Levels] 11 30,000
Jul 8 Mon 19:35 10 Speed Racer POWER HOUR [10 BB] 10 12,500
Jul 8 Mon 19:45 25 Speed Racer POWER HOUR [10 BB] 25 12,500
Jul 8 Mon 19:55 50 Speed Racer POWER HOUR [10 BB] 50 12,500
Jul 8 Mon 20:00 88 Bounty Warm-Up 88 60,000
Jul 8 Mon 20:05 100 Speed Racer POWER HOUR [10 BB] 100 10,000
Jul 8 Mon 20:15 200 Speed Racer POWER HOUR [10 BB] 200 12,500
Jul 8 Mon 21:00 44 Bounty Forty Stack 44 80,000
Jul 8 Mon 22:00 525 Bounty Hunters HR [6-Max] 525 300,000
Jul 8 Mon 22:00 54 Bounty Hunters Daily Main [6-Max] 54 250,000
Jul 8 Mon 23:00 215 Bounty Big Game 215 150,000
Jul 8 Mon 23:00 25 Bounty Big Game 25 100,000
Jul 8 Mon 23:30 1,050 Monday Monster Stack HR [Bounty Edition] 1,050 200,000
Jul 8 Mon 23:30 150 Monday Monster Stack [Bounty Edition] 150 150,000
Jul 8 Mon 23:30 15 Mini Monday Monster Stack [Bounty Edition] 15 75,000
Jul 9 Tue 01:00 32 Bounty King 32 70,000
Jul 9 Tue 01:10 525 Omaholic Bounty Fifty Stack 525 12,500
Jul 9 Tue 01:10 54 Omaholic Bounty Fifty Stack 54 15,000
Jul 9 Tue 02:30 215 Daily HEATER [Bounty Turbo] 215 50,000
Jul 9 Tue 03:30 66 SUPER SIX [Bounty Turbo] 66 40,000
Jul 9 Tue 04:00 25 HYPER 5-MAX 25 25,000
Jul 9 Tue 05:30 88 Midnight Madness [Bounty Hyper] 88 40,000
Jul 9 Tue 06:35 10 Speed Racer POWER HOUR [10 BB] 10 5,000
Jul 9 Tue 06:45 25 Speed Racer POWER HOUR [10 BB] 25 7,000
Jul 9 Tue 06:55 50 Speed Racer POWER HOUR [10 BB] 50 6,000
Jul 9 Tue 07:05 100 Speed Racer POWER HOUR [10 BB] 100 7,000
Jul 9 Tue 07:15 200 Speed Racer POWER HOUR [10 BB] 200 7,000
Jul 9 Tue 19:00 10.80 Bounty Hunters 6-Max 11 35,000
Jul 9 Tue 19:35 10 Speed Racer POWER HOUR [10 BB] 10 12,500
Jul 9 Tue 19:45 25 Speed Racer POWER HOUR [10 BB] 25 12,500
Jul 9 Tue 19:55 50 Speed Racer POWER HOUR [10 BB] 50 12,500
Jul 9 Tue 20:05 100 Speed Racer POWER HOUR [10 BB] 100 10,000
Jul 9 Tue 20:15 200 Speed Racer POWER HOUR [10 BB] 200 12,500
Jul 9 Tue 22:00 525 Bounty Hunters HR [Deepstack] 525 200,000
Jul 9 Tue 22:00 54 Bounty Hunters Daily Main [Deepstack] 54 250,000
Jul 9 Tue 23:30 1,050 Tuesday Classic HR [Bounty Edition] 1,050 150,000
Jul 9 Tue 23:30 150 Tuesday Classic [Bounty Edition] 150 200,000
Jul 9 Tue 23:30 15 Mini Tuesday Classic [Bounty Edition] 15 85,000
Jul 10 Wed 06:35 10 Speed Racer POWER HOUR [10 BB] 10 5,000
Jul 10 Wed 06:45 25 Speed Racer POWER HOUR [10 BB] 25 7,000
Jul 10 Wed 06:55 50 Speed Racer POWER HOUR [10 BB] 50 6,000
Jul 10 Wed 07:05 100 Speed Racer POWER HOUR [10 BB] 100 7,000
Jul 10 Wed 07:15 200 Speed Racer POWER HOUR [10 BB] 200 7,000
Jul 10 Wed 19:00 10.80 Bounty Hunters 6-Max 11 35,000
Jul 10 Wed 19:35 10 Speed Racer POWER HOUR [10 BB] 10 12,500
Jul 10 Wed 19:45 25 Speed Racer POWER HOUR [10 BB] 25 12,500
Jul 10 Wed 19:55 50 Speed Racer POWER HOUR [10 BB] 50 12,500
Jul 10 Wed 20:05 100 Speed Racer POWER HOUR [10 BB] 100 10,000
Jul 10 Wed 20:15 200 Speed Racer POWER HOUR [10 BB] 200 12,500
Jul 10 Wed 22:00 525 Bounty Hunters HR [Double Stack] 525 200,000
Jul 10 Wed 22:00 54 Bounty Hunters Daily Main [Double Stack] 54 250,000
Jul 10 Wed 23:30 1,050 Wednesday Wonderbox HR [Mystery Bounty] 1,050 200,000
Jul 10 Wed 23:30 150 Wednesday Wonderbox [Mystery Bounty] 150 400,000
Jul 10 Wed 23:30 15 Mini Wednesday Wonderbox [Mystery Bounty] 15 200,000
Jul 11 Thu 06:35 10 Speed Racer POWER HOUR [10 BB] 10 5,000
Jul 11 Thu 06:45 25 Speed Racer POWER HOUR [10 BB] 25 7,000
Jul 11 Thu 06:55 50 Speed Racer POWER HOUR [10 BB] 50 6,000
Jul 11 Thu 07:05 100 Speed Racer POWER HOUR [10 BB] 100 7,000
Jul 11 Thu 07:15 200 Speed Racer POWER HOUR [10 BB] 200 7,000
Jul 11 Thu 19:00 10.80 Bounty Hunters 6-Max 11 35,000
Jul 11 Thu 19:35 10 Speed Racer POWER HOUR [10 BB] 10 12,500
Jul 11 Thu 19:45 25 Speed Racer POWER HOUR [10 BB] 25 12,500
Jul 11 Thu 19:55 50 Speed Racer POWER HOUR [10 BB] 50 12,500
Jul 11 Thu 20:05 100 Speed Racer POWER HOUR [10 BB] 100 10,000
Jul 11 Thu 20:15 200 Speed Racer POWER HOUR [10 BB] 200 12,500
Jul 11 Thu 22:00 525 Bounty Hunters HR [Classic] 525 300,000
Jul 11 Thu 22:00 54 Bounty Hunters Daily Main [Classic] 54 250,000
Jul 11 Thu 23:30 1,050 Thursday Throwdown HR 1,050 300,000
Jul 11 Thu 23:30 150 Thursday Throwdown 150 200,000
Jul 11 Thu 23:30 15 Mini Thursday Throwdown 15 85,000
Jul 12 Fri 06:35 10 Speed Racer POWER HOUR [10 BB] 10 5,000
Jul 12 Fri 06:45 25 Speed Racer POWER HOUR [10 BB] 25 7,000
Jul 12 Fri 06:55 50 Speed Racer POWER HOUR [10 BB] 50 6,000
Jul 12 Fri 07:05 100 Speed Racer POWER HOUR [10 BB] 100 7,000
Jul 12 Fri 07:15 200 Speed Racer POWER HOUR [10 BB] 200 7,000
Jul 12 Fri 19:00 10.80 Furious Friday 5-Max 11 30,000
Jul 12 Fri 19:35 10 Speed Racer POWER HOUR [10 BB] 10 12,500
Jul 12 Fri 19:45 25 Speed Racer POWER HOUR [10 BB] 25 12,500
Jul 12 Fri 19:55 50 Speed Racer POWER HOUR [10 BB] 50 12,500
Jul 12 Fri 20:05 100 Speed Racer POWER HOUR [10 BB] 100 10,000
Jul 12 Fri 20:15 200 Speed Racer POWER HOUR [10 BB] 200 12,500
Jul 12 Fri 22:00 525 Bounty Hunters HR [Ultradeep Turbo] 525 100,000
Jul 12 Fri 22:00 54 Bounty Hunters Daily Main [Ultradeep Turbo] 54 150,000
Jul 12 Fri 23:30 1,050 Friday Night Fight HR [6-Max] 1,050 150,000
Jul 12 Fri 23:30 150 Friday Night Fight [6-Max] 150 125,000
Jul 12 Fri 23:30 15 Mini Friday Night Fight [6-Max] 15 75,000
Jul 13 Sat 06:35 10 Speed Racer POWER HOUR [10 BB] 10 5,000
Jul 13 Sat 06:45 25 Speed Racer POWER HOUR [10 BB] 25 7,000
Jul 13 Sat 06:55 50 Speed Racer POWER HOUR [10 BB] 50 6,000
Jul 13 Sat 07:05 100 Speed Racer POWER HOUR [10 BB] 100 7,000
Jul 13 Sat 07:15 200 Speed Racer POWER HOUR [10 BB] 200 7,000
Jul 13 Sat 19:00 10.80 Saturday Showdown 7-Max 11 40,000
Jul 13 Sat 19:35 10 Speed Racer POWER HOUR [10 BB] 10 12,500
Jul 13 Sat 19:45 25 Speed Racer POWER HOUR [10 BB] 25 12,500
Jul 13 Sat 19:55 50 Speed Racer POWER HOUR [10 BB] 50 12,500
Jul 13 Sat 20:05 100 Speed Racer POWER HOUR [10 BB] 100 10,000
Jul 13 Sat 20:15 200 Speed Racer POWER HOUR [10 BB] 200 12,500
Jul 13 Sat 22:00 525 Bounty Hunters HR [Big Bounties] 525 200,000
Jul 13 Sat 22:00 54 Bounty Hunters Daily Main [Big Bounties] 54 250,000
Jul 13 Sat 23:30 1,050 Saturday Secret KO HR [Mystery Bounty] 1,050 250,000
Jul 13 Sat 23:30 150 Saturday Secret KO [Mystery Bounty] 150 500,000
Jul 13 Sat 23:30 15 Mini Saturday Secret KO [Mystery Bounty] 15 250,000
Jul 14 Sun 06:35 10 Speed Racer POWER HOUR [10 BB] 10 5,000
Jul 14 Sun 06:45 25 Speed Racer POWER HOUR [10 BB] 25 7,000
Jul 14 Sun 06:55 50 Speed Racer POWER HOUR [10 BB] 50 6,000
Jul 14 Sun 07:05 100 Speed Racer POWER HOUR [10 BB] 100 7,000
Jul 14 Sun 07:15 200 Speed Racer POWER HOUR [10 BB] 200 7,000
Jul 14 Sun 18:00 215 Sunday Bounty Blast-Off 215 35,000
Jul 14 Sun 18:00 25 Sunday Bounty Blast-Off 25 100,000
Jul 14 Sun 19:00 10.80 Sunday Bounty Seven-Max 11 50,000
Jul 14 Sun 19:00 108 Sunday Bounty Seven-Max 108 70,000
Jul 14 Sun 19:35 10 Speed Racer POWER HOUR [10 BB] 10 12,500
Jul 14 Sun 19:45 25 Speed Racer POWER HOUR [10 BB] 25 12,500
Jul 14 Sun 19:55 50 Speed Racer POWER HOUR [10 BB] 50 12,500
Jul 14 Sun 20:00 840 Sunday Bounty Warm-Up HR 840 75,000
Jul 14 Sun 20:00 88 Sunday Bounty Warm-Up 88 175,000
Jul 14 Sun 20:05 100 Speed Racer POWER HOUR [10 BB] 100 10,000
Jul 14 Sun 20:15 200 Speed Racer POWER HOUR [10 BB] 200 12,500
Jul 14 Sun 21:00 44 Sunday Bounty Forty Stack 44 200,000
Jul 14 Sun 22:00 525 Bounty Hunters HR Main Event, 1M GTD 525 1,000,000
Jul 14 Sun 22:00 54 Bounty Hunters Sunday Main Event 54 500,000
Jul 14 Sun 23:00 215 Sunday Bounty Big Game 215 350,000
Jul 14 Sun 23:00 21.60 Sunday Bounty Big Game 22 200,000
Jul 14 Sun 23:10 215 Sunday Omaholic Big Game 215 50,000
Jul 15 Mon 00:30 1,050 Sunday HR Main Event [Bounty Edition] 1,050 300,000
Jul 15 Mon 01:00 320 GGMasters Bounty Special Edition 320 400,000
Jul 15 Mon 01:00 32 Sunday Bounty King 32 175,000
Jul 15 Mon 01:10 1,050 Sunday Omaholic Bounty HR 1,050 50,000
Jul 15 Mon 01:10 150 Sunday Omaholic Bounty Main 150 100,000
Jul 15 Mon 01:30 108 Sunday Showdown [Mystery Bounty] 108 400,000
Jul 15 Mon 01:30 15 Mini Showdown [Mystery Bounty] 15 250,000
Jul 15 Mon 02:30 1,050 Sunday HEATER HR [Bounty Turbo] 1,050 75,000
Jul 15 Mon 02:30 215 Sunday HEATER [Bounty Turbo] 215 125,000
Jul 15 Mon 02:30 25 Sunday Mini HEATER [Bounty Turbo] 25 100,000
Jul 15 Mon 04:00 77 LUCKY SEVENS [Bounty Turbo] 77 125,000
Jul 15 Mon 05:00 215 Sunday Last Call [Bounty Hyper] 215 60,000
Jul 15 Mon 05:30 88 Midnight Madness [Bounty Hyper] 88 40,000
Jul 15 Mon 06:35 10 Speed Racer POWER HOUR [10 BB] 10 5,000
Jul 15 Mon 06:45 25 Speed Racer POWER HOUR [10 BB] 25 7,000
Jul 15 Mon 06:55 50 Speed Racer POWER HOUR [10 BB] 50 6,000
Jul 15 Mon 07:05 100 Speed Racer POWER HOUR [10 BB] 100 7,000
Jul 15 Mon 07:15 200 Speed Racer POWER HOUR [10 BB] 200 7,000
Jul 15 Mon 18:00 25 Bounty Blast-Off 25 50,000
Jul 15 Mon 19:00 10.80 Monday Hangover [Variable Levels] 11 30,000
Jul 15 Mon 19:35 10 Speed Racer POWER HOUR [10 BB] 10 12,500
Jul 15 Mon 19:45 25 Speed Racer POWER HOUR [10 BB] 25 12,500
Jul 15 Mon 19:55 50 Speed Racer POWER HOUR [10 BB] 50 12,500
Jul 15 Mon 20:00 88 Bounty Warm-Up 88 60,000
Jul 15 Mon 20:05 100 Speed Racer POWER HOUR [10 BB] 100 10,000
Jul 15 Mon 20:15 200 Speed Racer POWER HOUR [10 BB] 200 12,500
Jul 15 Mon 21:00 44 Bounty Forty Stack 44 80,000
Jul 15 Mon 22:00 525 Bounty Hunters HR [6-Max] 525 300,000
Jul 15 Mon 22:00 54 Bounty Hunters Daily Main [6-Max] 54 250,000
Jul 15 Mon 23:00 215 Bounty Big Game 215 150,000
Jul 15 Mon 23:00 25 Bounty Big Game 25 100,000
Jul 15 Mon 23:30 1,050 Monday Monster Stack HR [Bounty Edition] 1,050 200,000
Jul 15 Mon 23:30 150 Monday Monster Stack [Bounty Edition] 150 150,000
Jul 15 Mon 23:30 15 Mini Monday Monster Stack [Bounty Edition] 15 75,000
Jul 16 Tue 01:00 32 Bounty King 32 70,000
Jul 16 Tue 01:10 525 Omaholic Bounty Fifty Stack 525 12,500
Jul 16 Tue 01:10 54 Omaholic Bounty Fifty Stack 54 15,000
Jul 16 Tue 02:30 215 Daily HEATER [Bounty Turbo] 215 50,000
Jul 16 Tue 03:30 66 SUPER SIX [Bounty Turbo] 66 40,000
Jul 16 Tue 04:00 25 HYPER 5-MAX 25 25,000
Jul 16 Tue 05:30 88 Midnight Madness [Bounty Hyper] 88 40,000
Jul 16 Tue 06:35 10 Speed Racer POWER HOUR [10 BB] 10 5,000
Jul 16 Tue 06:45 25 Speed Racer POWER HOUR [10 BB] 25 7,000
Jul 16 Tue 06:55 50 Speed Racer POWER HOUR [10 BB] 50 6,000
Jul 16 Tue 07:05 100 Speed Racer POWER HOUR [10 BB] 100 7,000
Jul 16 Tue 07:15 200 Speed Racer POWER HOUR [10 BB] 200 7,000
Jul 16 Tue 19:00 10.80 Bounty Hunters 6-Max 11 35,000
Jul 16 Tue 19:35 10 Speed Racer POWER HOUR [10 BB] 10 12,500
Jul 16 Tue 19:45 25 Speed Racer POWER HOUR [10 BB] 25 12,500
Jul 16 Tue 19:55 50 Speed Racer POWER HOUR [10 BB] 50 12,500
Jul 16 Tue 20:05 100 Speed Racer POWER HOUR [10 BB] 100 10,000
Jul 16 Tue 20:15 200 Speed Racer POWER HOUR [10 BB] 200 12,500
Jul 16 Tue 22:00 525 Bounty Hunters HR [Deepstack] 525 200,000
Jul 16 Tue 22:00 54 Bounty Hunters Daily Main [Deepstack] 54 250,000
Jul 16 Tue 23:30 1,050 Tuesday Classic HR [Bounty Edition] 1,050 150,000
Jul 16 Tue 23:30 150 Tuesday Classic [Bounty Edition] 150 200,000
Jul 16 Tue 23:30 15 Mini Tuesday Classic [Bounty Edition] 15 85,000
Jul 17 Wed 06:35 10 Speed Racer POWER HOUR [10 BB] 10 5,000
Jul 17 Wed 06:45 25 Speed Racer POWER HOUR [10 BB] 25 7,000
Jul 17 Wed 06:55 50 Speed Racer POWER HOUR [10 BB] 50 6,000
Jul 17 Wed 07:05 100 Speed Racer POWER HOUR [10 BB] 100 7,000
Jul 17 Wed 07:15 200 Speed Racer POWER HOUR [10 BB] 200 7,000
Jul 17 Wed 19:00 10.80 Bounty Hunters 6-Max 11 35,000
Jul 17 Wed 19:35 10 Speed Racer POWER HOUR [10 BB] 10 12,500
Jul 17 Wed 19:45 25 Speed Racer POWER HOUR [10 BB] 25 12,500
Jul 17 Wed 19:55 50 Speed Racer POWER HOUR [10 BB] 50 12,500
Jul 17 Wed 20:05 100 Speed Racer POWER HOUR [10 BB] 100 10,000
Jul 17 Wed 20:15 200 Speed Racer POWER HOUR [10 BB] 200 12,500
Jul 17 Wed 22:00 525 Bounty Hunters HR [Double Stack] 525 200,000
Jul 17 Wed 22:00 54 Bounty Hunters Daily Main [Double Stack] 54 250,000
Jul 17 Wed 23:30 1,050 Wednesday Wonderbox HR [Mystery Bounty] 1,050 200,000
Jul 17 Wed 23:30 150 Wednesday Wonderbox [Mystery Bounty] 150 400,000
Jul 17 Wed 23:30 15 Mini Wednesday Wonderbox [Mystery Bounty] 15 200,000
Jul 18 Thu 06:35 10 Speed Racer POWER HOUR [10 BB] 10 5,000
Jul 18 Thu 06:45 25 Speed Racer POWER HOUR [10 BB] 25 7,000
Jul 18 Thu 06:55 50 Speed Racer POWER HOUR [10 BB] 50 6,000
Jul 18 Thu 07:05 100 Speed Racer POWER HOUR [10 BB] 100 7,000
Jul 18 Thu 07:15 200 Speed Racer POWER HOUR [10 BB] 200 7,000
Jul 18 Thu 19:00 10.80 Bounty Hunters 6-Max 11 35,000
Jul 18 Thu 19:35 10 Speed Racer POWER HOUR [10 BB] 10 12,500
Jul 18 Thu 19:45 25 Speed Racer POWER HOUR [10 BB] 25 12,500
Jul 18 Thu 19:55 50 Speed Racer POWER HOUR [10 BB] 50 12,500
Jul 18 Thu 20:05 100 Speed Racer POWER HOUR [10 BB] 100 10,000
Jul 18 Thu 20:15 200 Speed Racer POWER HOUR [10 BB] 200 12,500
Jul 18 Thu 22:00 525 Bounty Hunters HR [Classic] 525 300,000
Jul 18 Thu 22:00 54 Bounty Hunters Daily Main [Classic] 54 250,000
Jul 18 Thu 23:30 1,050 Thursday Throwdown HR 1,050 300,000
Jul 18 Thu 23:30 150 Thursday Throwdown 150 200,000
Jul 18 Thu 23:30 15 Mini Thursday Throwdown 15 85,000
Jul 19 Fri 06:35 10 Speed Racer POWER HOUR [10 BB] 10 5,000
Jul 19 Fri 06:45 25 Speed Racer POWER HOUR [10 BB] 25 7,000
Jul 19 Fri 06:55 50 Speed Racer POWER HOUR [10 BB] 50 6,000
Jul 19 Fri 07:05 100 Speed Racer POWER HOUR [10 BB] 100 7,000
Jul 19 Fri 07:15 200 Speed Racer POWER HOUR [10 BB] 200 7,000
Jul 19 Fri 19:00 10.80 Furious Friday 5-Max 11 30,000
Jul 19 Fri 19:35 10 Speed Racer POWER HOUR [10 BB] 10 12,500
Jul 19 Fri 19:45 25 Speed Racer POWER HOUR [10 BB] 25 12,500
Jul 19 Fri 19:55 50 Speed Racer POWER HOUR [10 BB] 50 12,500
Jul 19 Fri 20:05 100 Speed Racer POWER HOUR [10 BB] 100 10,000
Jul 19 Fri 20:15 200 Speed Racer POWER HOUR [10 BB] 200 12,500
Jul 19 Fri 22:00 525 Bounty Hunters HR [Ultradeep Turbo] 525 100,000
Jul 19 Fri 22:00 54 Bounty Hunters Daily Main [Ultradeep Turbo] 54 150,000
Jul 19 Fri 23:30 1,050 Friday Night Fight HR [6-Max] 1,050 150,000
Jul 19 Fri 23:30 150 Friday Night Fight [6-Max] 150 125,000
Jul 19 Fri 23:30 15 Mini Friday Night Fight [6-Max] 15 75,000
Jul 20 Sat 06:35 10 Speed Racer POWER HOUR [10 BB] 10 5,000
Jul 20 Sat 06:45 25 Speed Racer POWER HOUR [10 BB] 25 7,000
Jul 20 Sat 06:55 50 Speed Racer POWER HOUR [10 BB] 50 6,000
Jul 20 Sat 07:05 100 Speed Racer POWER HOUR [10 BB] 100 7,000
Jul 20 Sat 07:15 200 Speed Racer POWER HOUR [10 BB] 200 7,000
Jul 20 Sat 19:00 10.80 Saturday Showdown 7-Max 11 40,000
Jul 20 Sat 19:35 10 Speed Racer POWER HOUR [10 BB] 10 12,500
Jul 20 Sat 19:45 25 Speed Racer POWER HOUR [10 BB] 25 12,500
Jul 20 Sat 19:55 50 Speed Racer POWER HOUR [10 BB] 50 12,500
Jul 20 Sat 20:05 100 Speed Racer POWER HOUR [10 BB] 100 10,000
Jul 20 Sat 20:15 200 Speed Racer POWER HOUR [10 BB] 200 12,500
Jul 20 Sat 22:00 525 Bounty Hunters HR [Big Bounties] 525 200,000
Jul 20 Sat 22:00 54 Bounty Hunters Daily Main [Big Bounties] 54 250,000
Jul 20 Sat 23:30 1,050 Saturday Secret KO HR [Mystery Bounty] 1,050 250,000
Jul 20 Sat 23:30 150 Saturday Secret KO [Mystery Bounty] 150 500,000
Jul 20 Sat 23:30 15 Mini Saturday Secret KO [Mystery Bounty] 15 250,000
Jul 21 Sun 06:35 10 Speed Racer POWER HOUR [10 BB] 10 5,000
Jul 21 Sun 06:45 25 Speed Racer POWER HOUR [10 BB] 25 7,000
Jul 21 Sun 06:55 50 Speed Racer POWER HOUR [10 BB] 50 6,000
Jul 21 Sun 07:05 100 Speed Racer POWER HOUR [10 BB] 100 7,000
Jul 21 Sun 07:15 200 Speed Racer POWER HOUR [10 BB] 200 7,000
Jul 21 Sun 18:00 215 Sunday Bounty Blast-Off 215 35,000
Jul 21 Sun 18:00 25 Sunday Bounty Blast-Off 25 100,000
Jul 21 Sun 19:00 10.80 Sunday Bounty Seven-Max 11 50,000
Jul 21 Sun 19:00 108 Sunday Bounty Seven-Max 108 70,000
Jul 21 Sun 19:35 10 Speed Racer POWER HOUR [10 BB] 10 12,500
Jul 21 Sun 19:45 25 Speed Racer POWER HOUR [10 BB] 25 12,500
Jul 21 Sun 19:55 50 Speed Racer POWER HOUR [10 BB] 50 12,500
Jul 21 Sun 20:00 840 Sunday Bounty Warm-Up HR 840 75,000
Jul 21 Sun 20:00 88 Sunday Bounty Warm-Up 88 175,000
Jul 21 Sun 20:05 100 Speed Racer POWER HOUR [10 BB] 100 10,000
Jul 21 Sun 20:15 200 Speed Racer POWER HOUR [10 BB] 200 12,500
Jul 21 Sun 21:00 44 Sunday Bounty Forty Stack 44 200,000
Jul 21 Sun 22:00 525 Bounty Hunters HR Main Event, 1M GTD 525 1,000,000
Jul 21 Sun 22:00 54 Bounty Hunters Sunday Main Event 54 500,000
Jul 21 Sun 23:00 215 Sunday Bounty Big Game 215 350,000
Jul 21 Sun 23:00 21.60 Sunday Bounty Big Game 22 200,000
Jul 21 Sun 23:10 215 Sunday Omaholic Big Game 215 50,000
Jul 22 Mon 00:30 1,050 Sunday HR Main Event [Bounty Edition] 1,050 300,000
Jul 22 Mon 01:00 320 GGMasters Bounty Special Edition 320 400,000
Jul 22 Mon 01:00 32 Sunday Bounty King 32 175,000
Jul 22 Mon 01:10 1,050 Sunday Omaholic Bounty HR 1,050 50,000
Jul 22 Mon 01:10 150 Sunday Omaholic Bounty Main 150 100,000
Jul 22 Mon 01:30 108 Sunday Showdown [Mystery Bounty] 108 400,000
Jul 22 Mon 01:30 15 Mini Showdown [Mystery Bounty] 15 250,000
Jul 22 Mon 02:00 Global MILLIONS Bounty Edition, 1M GTD [Final Stage] 50 1,000,000
Jul 22 Mon 02:30 1,050 Sunday HEATER HR [Bounty Turbo] 1,050 75,000
Jul 22 Mon 02:30 215 Sunday HEATER [Bounty Turbo] 215 125,000
Jul 22 Mon 02:30 25 Sunday Mini HEATER [Bounty Turbo] 25 100,000
Jul 22 Mon 04:00 77 LUCKY SEVENS [Bounty Turbo] 77 125,000
Jul 22 Mon 05:00 215 Sunday Last Call [Bounty Hyper] 215 60,000
Jul 22 Mon 05:30 88 Midnight Madness [Bounty Hyper] 88 40,000
Jul 22 Mon 06:35 10 Speed Racer POWER HOUR [10 BB] 10 5,000
Jul 22 Mon 06:45 25 Speed Racer POWER HOUR [10 BB] 25 7,000
Jul 22 Mon 06:55 50 Speed Racer POWER HOUR [10 BB] 50 6,000
Jul 22 Mon 07:05 100 Speed Racer POWER HOUR [10 BB] 100 7,000
Jul 22 Mon 07:15 200 Speed Racer POWER HOUR [10 BB] 200 7,000
Jul 22 Mon 18:00 25 Bounty Blast-Off 25 50,000
Jul 22 Mon 19:00 10.80 Monday Hangover [Variable Levels] 11 30,000
Jul 22 Mon 19:35 10 Speed Racer POWER HOUR [10 BB] 10 12,500
Jul 22 Mon 19:45 25 Speed Racer POWER HOUR [10 BB] 25 12,500
Jul 22 Mon 19:55 50 Speed Racer POWER HOUR [10 BB] 50 12,500
Jul 22 Mon 20:00 88 Bounty Warm-Up 88 60,000
Jul 22 Mon 20:05 100 Speed Racer POWER HOUR [10 BB] 100 10,000
Jul 22 Mon 20:15 200 Speed Racer POWER HOUR [10 BB] 200 12,500
Jul 22 Mon 21:00 44 Bounty Forty Stack 44 80,000
Jul 22 Mon 22:00 525 Bounty Hunters HR [6-Max] 525 300,000
Jul 22 Mon 22:00 54 Bounty Hunters Daily Main [6-Max] 54 250,000
Jul 22 Mon 23:00 215 Bounty Big Game 215 150,000
Jul 22 Mon 23:00 25 Bounty Big Game 25 100,000
Jul 22 Mon 23:30 1,050 Monday Monster Stack HR [Bounty Edition] 1,050 200,000
Jul 22 Mon 23:30 150 Monday Monster Stack [Bounty Edition] 150 150,000
Jul 22 Mon 23:30 15 Mini Monday Monster Stack [Bounty Edition] 15 75,000
Jul 23 Tue 01:00 32 Bounty King 32 70,000
Jul 23 Tue 01:10 525 Omaholic Bounty Fifty Stack 525 12,500
Jul 23 Tue 01:10 54 Omaholic Bounty Fifty Stack 54 15,000
Jul 23 Tue 02:30 215 Daily HEATER [Bounty Turbo] 215 50,000
Jul 23 Tue 03:30 66 SUPER SIX [Bounty Turbo] 66 40,000
Jul 23 Tue 04:00 25 HYPER 5-MAX 25 25,000
Jul 23 Tue 05:30 88 Midnight Madness [Bounty Hyper] 88 40,000
Jul 23 Tue 06:35 10 Speed Racer POWER HOUR [10 BB] 10 5,000
Jul 23 Tue 06:45 25 Speed Racer POWER HOUR [10 BB] 25 7,000
Jul 23 Tue 06:55 50 Speed Racer POWER HOUR [10 BB] 50 6,000
Jul 23 Tue 07:05 100 Speed Racer POWER HOUR [10 BB] 100 7,000
Jul 23 Tue 07:15 200 Speed Racer POWER HOUR [10 BB] 200 7,000
Jul 23 Tue 19:00 10.80 Bounty Hunters 6-Max 11 35,000
Jul 23 Tue 19:35 10 Speed Racer POWER HOUR [10 BB] 10 12,500
Jul 23 Tue 19:45 25 Speed Racer POWER HOUR [10 BB] 25 12,500
Jul 23 Tue 19:55 50 Speed Racer POWER HOUR [10 BB] 50 12,500
Jul 23 Tue 20:05 100 Speed Racer POWER HOUR [10 BB] 100 10,000
Jul 23 Tue 20:15 200 Speed Racer POWER HOUR [10 BB] 200 12,500
Jul 23 Tue 22:00 525 Bounty Hunters HR [Deepstack] 525 200,000
Jul 23 Tue 22:00 54 Bounty Hunters Daily Main [Deepstack] 54 250,000
Jul 23 Tue 23:30 1,050 Tuesday Classic HR [Bounty Edition] 1,050 150,000
Jul 23 Tue 23:30 150 Tuesday Classic [Bounty Edition] 150 200,000
Jul 23 Tue 23:30 15 Mini Tuesday Classic [Bounty Edition] 15 85,000
Jul 24 Wed 06:35 10 Speed Racer POWER HOUR [10 BB] 10 5,000
Jul 24 Wed 06:45 25 Speed Racer POWER HOUR [10 BB] 25 7,000
Jul 24 Wed 06:55 50 Speed Racer POWER HOUR [10 BB] 50 6,000
Jul 24 Wed 07:05 100 Speed Racer POWER HOUR [10 BB] 100 7,000
Jul 24 Wed 07:15 200 Speed Racer POWER HOUR [10 BB] 200 7,000
Jul 24 Wed 19:00 10.80 Bounty Hunters 6-Max 11 35,000
Jul 24 Wed 19:35 10 Speed Racer POWER HOUR [10 BB] 10 12,500
Jul 24 Wed 19:45 25 Speed Racer POWER HOUR [10 BB] 25 12,500
Jul 24 Wed 19:55 50 Speed Racer POWER HOUR [10 BB] 50 12,500
Jul 24 Wed 20:05 100 Speed Racer POWER HOUR [10 BB] 100 10,000
Jul 24 Wed 20:15 200 Speed Racer POWER HOUR [10 BB] 200 12,500
Jul 24 Wed 22:00 525 Bounty Hunters HR [Double Stack] 525 200,000
Jul 24 Wed 22:00 54 Bounty Hunters Daily Main [Double Stack] 54 250,000
Jul 24 Wed 23:30 1,050 Wednesday Wonderbox HR [Mystery Bounty] 1,050 200,000
Jul 24 Wed 23:30 150 Wednesday Wonderbox [Mystery Bounty] 150 400,000
Jul 24 Wed 23:30 15 Mini Wednesday Wonderbox [Mystery Bounty] 15 200,000
Jul 25 Thu 06:35 10 Speed Racer POWER HOUR [10 BB] 10 5,000
Jul 25 Thu 06:45 25 Speed Racer POWER HOUR [10 BB] 25 7,000
Jul 25 Thu 06:55 50 Speed Racer POWER HOUR [10 BB] 50 6,000
Jul 25 Thu 07:05 100 Speed Racer POWER HOUR [10 BB] 100 7,000
Jul 25 Thu 07:15 200 Speed Racer POWER HOUR [10 BB] 200 7,000
Jul 25 Thu 19:00 10.80 Bounty Hunters 6-Max 11 35,000
Jul 25 Thu 19:35 10 Speed Racer POWER HOUR [10 BB] 10 12,500
Jul 25 Thu 19:45 25 Speed Racer POWER HOUR [10 BB] 25 12,500
Jul 25 Thu 19:55 50 Speed Racer POWER HOUR [10 BB] 50 12,500
Jul 25 Thu 20:05 100 Speed Racer POWER HOUR [10 BB] 100 10,000
Jul 25 Thu 20:15 200 Speed Racer POWER HOUR [10 BB] 200 12,500
Jul 25 Thu 22:00 525 Bounty Hunters HR [Classic] 525 300,000
Jul 25 Thu 22:00 54 Bounty Hunters Daily Main [Classic] 54 250,000
Jul 25 Thu 23:30 1,050 Thursday Throwdown HR 1,050 300,000
Jul 25 Thu 23:30 150 Thursday Throwdown 150 200,000
Jul 25 Thu 23:30 15 Mini Thursday Throwdown 15 85,000
Jul 26 Fri 06:35 10 Speed Racer POWER HOUR [10 BB] 10 5,000
Jul 26 Fri 06:45 25 Speed Racer POWER HOUR [10 BB] 25 7,000
Jul 26 Fri 06:55 50 Speed Racer POWER HOUR [10 BB] 50 6,000
Jul 26 Fri 07:05 100 Speed Racer POWER HOUR [10 BB] 100 7,000
Jul 26 Fri 07:15 200 Speed Racer POWER HOUR [10 BB] 200 7,000
Jul 26 Fri 19:00 10.80 Furious Friday 5-Max 11 30,000
Jul 26 Fri 19:35 10 Speed Racer POWER HOUR [10 BB] 10 12,500
Jul 26 Fri 19:45 25 Speed Racer POWER HOUR [10 BB] 25 12,500
Jul 26 Fri 19:55 50 Speed Racer POWER HOUR [10 BB] 50 12,500
Jul 26 Fri 20:05 100 Speed Racer POWER HOUR [10 BB] 100 10,000
Jul 26 Fri 20:15 200 Speed Racer POWER HOUR [10 BB] 200 12,500
Jul 26 Fri 22:00 525 Bounty Hunters HR [Ultradeep Turbo] 525 100,000
Jul 26 Fri 22:00 54 Bounty Hunters Daily Main [Ultradeep Turbo] 54 150,000
Jul 26 Fri 23:30 1,050 Friday Night Fight HR [6-Max] 1,050 150,000
Jul 26 Fri 23:30 150 Friday Night Fight [6-Max] 150 125,000
Jul 26 Fri 23:30 15 Mini Friday Night Fight [6-Max] 15 75,000
Jul 27 Sat 06:35 10 Speed Racer POWER HOUR [10 BB] 10 5,000
Jul 27 Sat 06:45 25 Speed Racer POWER HOUR [10 BB] 25 7,000
Jul 27 Sat 06:55 50 Speed Racer POWER HOUR [10 BB] 50 6,000
Jul 27 Sat 07:05 100 Speed Racer POWER HOUR [10 BB] 100 7,000
Jul 27 Sat 07:15 200 Speed Racer POWER HOUR [10 BB] 200 7,000
Jul 27 Sat 19:00 10.80 Saturday Showdown 7-Max 11 40,000
Jul 27 Sat 19:35 10 Speed Racer POWER HOUR [10 BB] 10 12,500
Jul 27 Sat 19:45 25 Speed Racer POWER HOUR [10 BB] 25 12,500
Jul 27 Sat 19:55 50 Speed Racer POWER HOUR [10 BB] 50 12,500
Jul 27 Sat 20:05 100 Speed Racer POWER HOUR [10 BB] 100 10,000
Jul 27 Sat 20:15 200 Speed Racer POWER HOUR [10 BB] 200 12,500
Jul 27 Sat 22:00 525 Bounty Hunters HR [Big Bounties] 525 200,000
Jul 27 Sat 22:00 54 Bounty Hunters Daily Main [Big Bounties] 54 250,000
Jul 27 Sat 23:30 1,050 Saturday Secret KO HR [Mystery Bounty] 1,050 250,000
Jul 27 Sat 23:30 150 Saturday Secret KO [Mystery Bounty] 150 500,000
Jul 27 Sat 23:30 15 Mini Saturday Secret KO [Mystery Bounty] 15 250,000
Jul 28 Sun 06:35 10 Speed Racer POWER HOUR [10 BB] 10 5,000
Jul 28 Sun 06:45 25 Speed Racer POWER HOUR [10 BB] 25 7,000
Jul 28 Sun 06:55 50 Speed Racer POWER HOUR [10 BB] 50 6,000
Jul 28 Sun 07:05 100 Speed Racer POWER HOUR [10 BB] 100 7,000
Jul 28 Sun 07:15 200 Speed Racer POWER HOUR [10 BB] 200 7,000
Jul 28 Sun 18:00 215 Sunday Bounty Blast-Off 215 35,000
Jul 28 Sun 18:00 25 Sunday Bounty Blast-Off 25 100,000
Jul 28 Sun 19:00 10.80 Sunday Bounty Seven-Max 11 50,000
Jul 28 Sun 19:00 108 Sunday Bounty Seven-Max 108 70,000
Jul 28 Sun 19:35 10 Speed Racer POWER HOUR [10 BB] 10 12,500
Jul 28 Sun 19:45 25 Speed Racer POWER HOUR [10 BB] 25 12,500
Jul 28 Sun 19:55 50 Speed Racer POWER HOUR [10 BB] 50 12,500
Jul 28 Sun 20:00 840 Sunday Bounty Warm-Up HR 840 75,000
Jul 28 Sun 20:00 88 Sunday Bounty Warm-Up 88 175,000
Jul 28 Sun 20:05 100 Speed Racer POWER HOUR [10 BB] 100 10,000
Jul 28 Sun 20:15 200 Speed Racer POWER HOUR [10 BB] 200 12,500
Jul 28 Sun 21:00 44 Sunday Bounty Forty Stack 44 200,000
Jul 28 Sun 22:00 525 Bounty Hunters HR Main Event, 1M GTD 525 1,000,000
Jul 28 Sun 22:00 54 Bounty Hunters Sunday Main Event 54 500,000
Jul 28 Sun 23:00 215 Sunday Bounty Big Game 215 350,000
Jul 28 Sun 23:00 21.60 Sunday Bounty Big Game 22 200,000
Jul 28 Sun 23:10 215 Sunday Omaholic Big Game 215 50,000
Jul 29 Mon 00:30 1,050 Sunday HR Main Event [Bounty Edition] 1,050 300,000
Jul 29 Mon 01:00 320 GGMasters Bounty Special Edition 320 400,000
Jul 29 Mon 01:00 32 Sunday Bounty King 32 175,000
Jul 29 Mon 01:10 1,050 Sunday Omaholic Bounty HR 1,050 50,000
Jul 29 Mon 01:10 150 Sunday Omaholic Bounty Main 150 100,000
Jul 29 Mon 01:30 108 Sunday Showdown [Mystery Bounty] 108 400,000
Jul 29 Mon 01:30 15 Mini Showdown [Mystery Bounty] 15 250,000
Jul 29 Mon 02:30 1,050 Sunday HEATER HR [Bounty Turbo] 1,050 75,000
Jul 29 Mon 02:30 215 Sunday HEATER [Bounty Turbo] 215 125,000
Jul 29 Mon 02:30 25 Sunday Mini HEATER [Bounty Turbo] 25 100,000
Jul 29 Mon 04:00 77 LUCKY SEVENS [Bounty Turbo] 77 125,000
Jul 29 Mon 05:00 215 Sunday Last Call [Bounty Hyper] 215 60,000
Jul 29 Mon 05:30 88 Midnight Madness [Bounty Hyper] 88 40,000
Jul 29 Mon 06:35 10 Speed Racer POWER HOUR [10 BB] 10 5,000
Jul 29 Mon 06:45 25 Speed Racer POWER HOUR [10 BB] 25 7,000
Jul 29 Mon 06:55 50 Speed Racer POWER HOUR [10 BB] 50 6,000
Jul 29 Mon 07:05 100 Speed Racer POWER HOUR [10 BB] 100 7,000
Jul 29 Mon 07:15 200 Speed Racer POWER HOUR [10 BB] 200 7,000
Jul 29 Mon 18:00 25 Bounty Blast-Off 25 50,000
Jul 29 Mon 19:00 10.80 Monday Hangover [Variable Levels] 11 30,000
Jul 29 Mon 19:35 10 Speed Racer POWER HOUR [10 BB] 10 12,500
Jul 29 Mon 19:45 25 Speed Racer POWER HOUR [10 BB] 25 12,500
Jul 29 Mon 19:55 50 Speed Racer POWER HOUR [10 BB] 50 12,500
Jul 29 Mon 20:00 88 Bounty Warm-Up 88 60,000
Jul 29 Mon 20:05 100 Speed Racer POWER HOUR [10 BB] 100 10,000
Jul 29 Mon 20:15 200 Speed Racer POWER HOUR [10 BB] 200 12,500
Jul 29 Mon 21:00 44 Bounty Forty Stack 44 80,000
Jul 29 Mon 22:00 525 Bounty Hunters HR [6-Max] 525 300,000
Jul 29 Mon 22:00 54 Bounty Hunters Daily Main [6-Max] 54 250,000
Jul 29 Mon 23:00 215 Bounty Big Game 215 150,000
Jul 29 Mon 23:00 25 Bounty Big Game 25 100,000
Jul 29 Mon 23:30 1,050 Monday Monster Stack HR [Bounty Edition] 1,050 200,000
Jul 29 Mon 23:30 150 Monday Monster Stack [Bounty Edition] 150 150,000
Jul 29 Mon 23:30 15 Mini Monday Monster Stack [Bounty Edition] 15 75,000
Jul 30 Tue 00:00 Mystery MILLIONS Main Event, 4M GTD [Day 2] 108 4,000,000
Jul 30 Tue 01:00 32 Bounty King 32 70,000
Jul 30 Tue 01:10 525 Omaholic Bounty Fifty Stack 525 12,500
Jul 30 Tue 01:10 54 Omaholic Bounty Fifty Stack 54 15,000
Jul 30 Tue 02:30 215 Daily HEATER [Bounty Turbo] 215 50,000
Jul 30 Tue 03:30 66 SUPER SIX [Bounty Turbo] 66 40,000
Jul 30 Tue 04:00 25 HYPER 5-MAX 25 25,000
Jul 30 Tue 05:30 88 Midnight Madness [Bounty Hyper] 88 40,000
Jul 30 Tue 06:35 10 Speed Racer POWER HOUR [10 BB] 10 5,000
Jul 30 Tue 06:45 25 Speed Racer POWER HOUR [10 BB] 25 7,000
Jul 30 Tue 06:55 50 Speed Racer POWER HOUR [10 BB] 50 6,000
Jul 30 Tue 07:05 100 Speed Racer POWER HOUR [10 BB] 100 7,000
Jul 30 Tue 07:15 200 Speed Racer POWER HOUR [10 BB] 200 7,000

Frequently Asked Questions (FAQs)

Got questions? We answer some of the most common questions about online poker. Contact our 24/7 live support if you can’t find what you’re looking for.

When will the bounty rewards be credited to my account?

Bounty rewards will be credited to your player account the moment you KO an opponent. It can be found in your transaction history as individual transactions.

When does the bounty end?

Bounties will remain in play right up until the final Heads Up, where the winner will claim the loser’s bounty as the tournament ends.

What is the Mystery Bounty tournament?

In Mystery Bounty, bounties are only paid in the final phase AND they are random. This means that you could win the biggest bounty even if you get knocked out early in the final phase!

What is the difference between Mystery Bounty & PKO tournaments?

In Mystery Bounty tournaments, a random bounty is paid each time a player knocks-out another player in the Final Stage of the tournament. There are no bounties in the initial phase (Stage 1) of Mystery Bounty tournaments. In Progressive Knock-Out (PKO) tournaments, a bounty is paid each time a player knocks-out another player at any time in the tournament.

How do I know if the tournament offers a Bounty Jackpot?

Find your favorite Bounty Tournament in the Natural8 India game client and check to see if it has a Bounty Jackpot in the Tournament information tab.

If I win a tournament, do I get 2 chances to win a Bounty Jackpot since I win the Bounty as well?

No. You get a chance for each player you knock out. However, you can still win a Bounty Jackpot by winning the tournament.

Terms & Conditions

  1. Players must be aged 18 and above to participate.
  2. Please note that tournament prize pool guarantees are subject to change and some amounts listed on this website may not be current. Please check the guarantee amounts listed in the tournament lobby of the Natural8 India app for up-to-date prize pool information. Tournament prizes are awarded as per Natural8 India standard payout procedure.
  3. Natural8 India reserves the right to investigate any players suspected of fraudulent activity, and take any necessary action. In the event of multi-accounting, bonus hunting, or foul play, Natural8 India reserves the right to forfeit any prize amounts that have been paid along with any remaining cash balances, without prior notice.
  4. Natural8 India reserves the right to cancel or modify this tournament at any time without prior notice, and at its sole and absolute discretion.
  5. This promotion is subject to the terms and conditions of the Natural8 India website.
  6. Natural8 India is an advocate of safer gaming. If you feel you might have a problem, do seek further advice or counselling. Please also refer to our Responsible Gaming page.

You May Also Like